createdAt,value
2018-03-04T08:32:26.956Z,31.33
2018-03-04T08:34:54.419Z,29.00
2018-03-04T08:37:21.889Z,30.85
2018-03-04T08:39:49.357Z,24.17
2018-03-04T08:49:37.843Z,24.77
2018-03-04T08:56:59.321Z,21.87
2018-03-04T08:59:26.768Z,22.50
2018-03-04T09:01:54.228Z,20.03
2018-03-04T09:11:44.568Z,17.80
2018-03-04T09:16:39.125Z,22.00
2018-03-04T09:24:08.426Z,19.73
2018-03-04T09:26:37.469Z,17.70
2018-03-04T09:29:05.057Z,17.77
2018-03-04T09:31:32.515Z,19.10
2018-03-04T09:36:28.954Z,17.13
2018-03-04T09:38:56.903Z,19.10
2018-03-04T09:41:25.281Z,18.30
2018-03-04T09:43:53.627Z,16.07
2018-03-04T09:46:21.851Z,17.60
2018-03-04T09:48:50.773Z,17.45
2018-03-04T10:03:38.449Z,18.77
2018-03-04T10:06:06.670Z,16.85
2018-03-04T10:08:34.694Z,20.00
2018-03-04T10:11:03.499Z,18.00
2018-03-04T10:13:33.559Z,16.73
2018-03-04T10:16:02.195Z,14.87
2018-03-04T10:18:31.361Z,13.77
2018-03-04T10:20:59.286Z,14.40
2018-03-04T10:23:27.880Z,16.00
2018-03-04T10:25:55.984Z,12.90
2018-03-04T10:28:24.386Z,15.20
2018-03-04T10:30:52.654Z,11.37
2018-03-04T10:33:21.008Z,11.70
2018-03-04T10:35:49.502Z,11.73
2018-03-04T10:38:18.183Z,11.50
2018-03-04T10:40:46.165Z,12.27
2018-03-04T10:43:14.660Z,11.33
2018-03-04T10:45:44.237Z,12.53
2018-03-04T10:48:14.093Z,9.80
2018-03-04T10:50:45.494Z,11.73
2018-03-04T10:53:15.767Z,13.03
2018-03-04T10:55:45.295Z,9.53
2018-03-04T10:58:14.940Z,11.00
2018-03-04T11:00:47.334Z,8.13
2018-03-04T11:03:18.690Z,7.93
2018-03-04T11:05:46.843Z,10.00
2018-03-04T11:08:15.028Z,8.13
2018-03-04T11:10:44.299Z,6.20
2018-03-04T11:20:37.547Z,5.40
2018-03-04T11:23:06.413Z,5.87
2018-03-04T11:25:34.953Z,8.17
2018-03-04T11:30:36.685Z,7.75
2018-03-04T11:33:06.956Z,8.73
2018-03-04T11:35:37.854Z,6.67
2018-03-04T11:38:07.995Z,3.80
2018-03-04T11:52:58.158Z,3.27
